createdAt,value
2022-11-21T00:01:16.663Z,99738.34
2022-11-21T00:03:46.109Z,99740.94
2022-11-21T00:06:14.244Z,99739.22
2022-11-21T00:08:42.086Z,99740.97
2022-11-21T00:11:10.036Z,99740.16
2022-11-21T00:13:38.126Z,99730.56
2022-11-21T00:16:07.689Z,99732.34
2022-11-21T00:18:36.128Z,99725.38
2022-11-21T00:21:09.302Z,99719.34
2022-11-21T00:23:37.337Z,99716.75
2022-11-21T00:26:06.453Z,99707.22
2022-11-21T00:28:34.399Z,99702.94
2022-11-21T00:31:02.429Z,99703.81
2022-11-21T00:33:30.202Z,99702.06
2022-11-21T00:35:58.259Z,99702.97
2022-11-21T00:38:28.440Z,99699.53
2022-11-21T00:40:56.175Z,99697.84
2022-11-21T00:43:23.888Z,99690.91
2022-11-21T00:45:51.699Z,99696.97
2022-11-21T00:48:19.454Z,99690.06
2022-11-21T00:50:49.804Z,99690.09
2022-11-21T00:53:17.686Z,99683.97
2022-11-21T00:55:46.826Z,99685.69
2022-11-21T00:58:14.526Z,99688.41
2022-11-21T01:00:42.354Z,99680.59
2022-11-21T01:03:10.234Z,99673.63
2022-11-21T01:05:38.068Z,99676.28
2022-11-21T01:08:05.991Z,99673.69
2022-11-21T01:10:35.211Z,99668.47
2022-11-21T01:13:05.085Z,99662.41
2022-11-21T01:15:32.898Z,99676.34
2022-11-21T01:18:00.621Z,99659.00
2022-11-21T01:20:28.444Z,99662.47
2022-11-21T01:22:56.188Z,99659.09
2022-11-21T01:25:23.980Z,99655.66
2022-11-21T01:27:51.715Z,99657.44
2022-11-21T01:30:20.996Z,99659.22
2022-11-21T01:32:49.949Z,99658.41
2022-11-21T01:35:17.761Z,99655.81
2022-11-21T01:37:48.158Z,99643.66
2022-11-21T01:40:16.446Z,99640.31
2022-11-21T01:42:54.914Z,99635.97
2022-11-21T01:45:53.202Z,99642.09
2022-11-21T01:48:23.860Z,99647.31
2022-11-21T01:50:51.711Z,99652.50
2022-11-21T01:53:19.898Z,99649.09
2022-11-21T01:55:47.930Z,99649.09
2022-11-21T01:58:16.858Z,99648.31
2022-11-21T02:00:48.630Z,99649.13
2022-11-21T02:03:22.396Z,99645.72
2022-11-21T02:05:50.258Z,99652.59
2022-11-21T02:08:21.829Z,99655.25
2022-11-21T02:10:58.830Z,99646.63
2022-11-21T02:13:26.603Z,99642.31
2022-11-21T02:15:55.283Z,99635.38
2022-11-21T02:18:24.366Z,99635.38
2022-11-21T02:20:58.970Z,99633.69
2022-11-21T02:23:34.291Z,99625.88
2022-11-21T02:26:03.449Z,99625.91
2022-11-21T02:28:31.620Z,99625.06
2022-11-21T02:30:59.349Z,99632.06
2022-11-21T02:33:27.087Z,99633.78
2022-11-21T02:35:59.382Z,99628.63
2022-11-21T02:38:31.961Z,99633.84
2022-11-21T02:41:10.702Z,99633.84
2022-11-21T02:43:43.529Z,99640.84
2022-11-21T02:46:11.341Z,99632.16
2022-11-21T02:48:39.774Z,99631.28
2022-11-21T02:51:07.759Z,99629.56
2022-11-21T02:53:35.450Z,99639.16
2022-11-21T02:56:03.358Z,99631.34
2022-11-21T02:58:32.849Z,99635.72
2022-11-21T03:01:00.652Z,99632.22
2022-11-21T03:03:28.437Z,99634.00
2022-11-21T03:05:57.131Z,99629.66
2022-11-21T03:08:24.864Z,99634.06
2022-11-21T03:10:52.592Z,99639.31
2022-11-21T03:13:20.321Z,99632.31
2022-11-21T03:15:49.385Z,99631.50
2022-11-21T03:18:17.120Z,99633.19
2022-11-21T03:20:44.830Z,99633.19
2022-11-21T03:23:12.576Z,99634.91
2022-11-21T03:25:40.307Z,99644.47
2022-11-21T03:28:08.025Z,99643.59
2022-11-21T03:30:35.799Z,99653.13
2022-11-21T03:33:04.858Z,99654.88
2022-11-21T03:35:32.592Z,99651.34
2022-11-21T03:38:00.393Z,99660.91
2022-11-21T03:40:28.106Z,99660.03
2022-11-21T03:42:55.820Z,99648.75
2022-11-21T03:45:23.554Z,99651.34
2022-11-21T03:47:51.369Z,99658.28
2022-11-21T03:50:21.612Z,99649.63
2022-11-21T03:52:49.411Z,99653.94
2022-11-21T03:55:17.324Z,99650.50
2022-11-21T03:57:44.994Z,99662.69
2022-11-21T04:00:14.329Z,99659.19
2022-11-21T04:02:42.028Z,99657.41
2022-11-21T04:05:10.282Z,99666.97
2022-11-21T04:07:39.387Z,99676.50
2022-11-21T04:10:08.112Z,99676.47
2022-11-21T04:12:35.863Z,99683.41
2022-11-21T04:15:04.600Z,99679.00
2022-11-21T04:17:33.825Z,99684.22
2022-11-21T04:20:01.624Z,99692.03
2022-11-21T04:22:29.389Z,99687.66
2022-11-21T04:24:58.689Z,99685.03
2022-11-21T04:27:26.407Z,99689.34
2022-11-21T04:29:54.174Z,99699.75
2022-11-21T04:32:21.899Z,99700.59
2022-11-21T04:34:49.584Z,99695.38
2022-11-21T04:37:17.363Z,99689.25
2022-11-21T04:39:45.101Z,99690.06
2022-11-21T04:42:14.199Z,99696.19
2022-11-21T04:44:41.905Z,99703.94
2022-11-21T04:47:09.630Z,99716.09
2022-11-21T04:49:37.365Z,99714.34
2022-11-21T04:52:05.481Z,99706.47
2022-11-21T04:54:33.199Z,99715.97
2022-11-21T04:57:00.925Z,99715.09
2022-11-21T04:59:30.085Z,99708.16
2022-11-21T05:01:57.862Z,99705.56
2022-11-21T05:04:25.623Z,99711.63
2022-11-21T05:06:53.384Z,99711.56
2022-11-21T05:09:21.132Z,99712.41
2022-11-21T05:12:06.409Z,99715.91
2022-11-21T05:14:35.529Z,99721.13
2022-11-21T05:17:03.334Z,99715.91
2022-11-21T05:19:31.218Z,99731.53
2022-11-21T05:21:58.982Z,99725.41
2022-11-21T05:24:27.018Z,99730.63
2022-11-21T05:26:55.545Z,99730.63
2022-11-21T05:29:27.901Z,99721.88
2022-11-21T05:31:57.377Z,99731.47
2022-11-21T05:34:25.244Z,99728.91
2022-11-21T05:36:57.091Z,99738.41
2022-11-21T05:39:25.234Z,99728.00
2022-11-21T05:41:52.953Z,99735.81
2022-11-21T05:44:19.725Z,99728.00
2022-11-21T05:46:48.203Z,99735.88
2022-11-21T05:49:17.270Z,99735.00
2022-11-21T05:51:44.986Z,99750.66
2022-11-21T05:54:14.908Z,99751.47
2022-11-21T05:56:42.946Z,99751.53
2022-11-21T05:59:12.275Z,99753.31
2022-11-21T06:02:05.948Z,99754.13
2022-11-21T06:04:35.976Z,99755.00
2022-11-21T06:07:05.851Z,99759.41
2022-11-21T06:09:33.603Z,99761.13
2022-11-21T06:12:01.322Z,99760.28
2022-11-21T06:14:29.189Z,99760.28
2022-11-21T06:16:57.081Z,99769.00
2022-11-21T06:19:24.777Z,99769.88
2022-11-21T06:21:53.971Z,99774.25
2022-11-21T06:24:22.469Z,99769.91
2022-11-21T06:26:50.280Z,99772.56
2022-11-21T06:29:17.951Z,99773.44
2022-11-21T06:31:45.648Z,99777.72
2022-11-21T06:34:13.342Z,99771.66
2022-11-21T06:36:41.188Z,99778.53
2022-11-21T06:39:10.284Z,99788.91
2022-11-21T06:41:37.963Z,99787.97
2022-11-21T06:44:05.991Z,99788.81
2022-11-21T06:46:33.724Z,99780.97
2022-11-21T06:49:01.499Z,99780.97
2022-11-21T06:51:29.287Z,99782.59
2022-11-21T06:53:59.400Z,99783.41
2022-11-21T06:56:30.551Z,99784.16
2022-11-21T06:58:58.451Z,99783.19
2022-11-21T07:01:26.465Z,99790.03
2022-11-21T07:03:54.385Z,99786.50
2022-11-21T07:06:22.260Z,99787.25
2022-11-21T07:09:17.497Z,99799.25
2022-11-21T07:11:42.430Z,99790.38
2022-11-21T07:14:09.674Z,99803.31
2022-11-21T07:16:37.791Z,99799.72
2022-11-21T07:19:05.621Z,99807.41
2022-11-21T07:21:33.343Z,99809.84
2022-11-21T07:24:01.120Z,99814.91
2022-11-21T07:26:28.818Z,99819.13
2022-11-21T07:28:59.249Z,99800.81
2022-11-21T07:31:26.983Z,99810.28
2022-11-21T07:33:54.715Z,99807.56
2022-11-21T07:36:22.506Z,99810.03
2022-11-21T07:38:50.232Z,99807.34
2022-11-21T07:41:18.243Z,99806.38
2022-11-21T07:43:45.966Z,99819.31
2022-11-21T07:46:15.150Z,99821.00
2022-11-21T07:48:42.871Z,99826.09
2022-11-21T07:51:11.169Z,99825.13
2022-11-21T07:53:39.034Z,99825.13
2022-11-21T07:56:09.476Z,99833.84
2022-11-21T07:58:37.246Z,99826.03
2022-11-21T08:01:06.123Z,99819.13
2022-11-21T08:03:35.818Z,99822.59
2022-11-21T08:06:05.030Z,99819.13
2022-11-21T08:08:32.917Z,99821.78
2022-11-21T08:11:05.613Z,99829.69
2022-11-21T08:13:33.517Z,99825.44
2022-11-21T08:16:03.716Z,99828.09
2022-11-21T08:18:31.510Z,99823.88
2022-11-21T08:21:03.638Z,99833.56
2022-11-21T08:23:31.548Z,99826.75
2022-11-21T08:25:59.762Z,99826.13
2022-11-21T08:28:27.637Z,99823.66
2022-11-21T08:30:55.589Z,99826.50
2022-11-21T08:33:23.326Z,99826.72
2022-11-21T08:35:51.036Z,99835.63
2022-11-21T08:38:20.114Z,99841.09
2022-11-21T08:41:08.413Z,99843.13
2022-11-21T08:43:37.941Z,99840.00
2022-11-21T08:46:05.673Z,99841.97
2022-11-21T08:48:33.515Z,99833.59
2022-11-21T08:51:01.380Z,99831.31
2022-11-21T08:53:30.486Z,99827.31
2022-11-21T08:56:03.813Z,99829.44
2022-11-21T08:58:32.239Z,99829.84
2022-11-21T09:01:00.405Z,99828.44
2022-11-21T09:03:31.365Z,99827.13
2022-11-21T09:06:00.339Z,99828.34
2022-11-21T09:08:28.290Z,99839.03
2022-11-21T09:10:57.371Z,99837.56
2022-11-21T09:13:25.089Z,99831.69
2022-11-21T09:16:10.720Z,99840.63
2022-11-21T09:18:38.475Z,99835.66
2022-11-21T09:21:06.263Z,99826.38
2022-11-21T09:23:33.959Z,99838.75
2022-11-21T09:26:03.016Z,99830.25
2022-11-21T09:28:30.761Z,99838.41
2022-11-21T09:30:59.174Z,99844.59
2022-11-21T09:33:26.977Z,99843.13
2022-11-21T09:35:54.713Z,99859.97
2022-11-21T09:38:24.440Z,99869.91
2022-11-21T09:40:52.378Z,99867.63
2022-11-21T09:43:38.256Z,99865.97
2022-11-21T09:46:11.914Z,99872.56
2022-11-21T09:48:53.238Z,99876.47
2022-11-21T09:51:23.569Z,99875.72
2022-11-21T09:53:57.400Z,99877.44
2022-11-21T09:56:25.930Z,99872.06
2022-11-21T09:59:08.077Z,99877.41
2022-11-21T10:01:35.925Z,99877.97
2022-11-21T10:04:04.609Z,99879.28
2022-11-21T10:06:37.594Z,99888.88
2022-11-21T10:09:14.844Z,99885.63
2022-11-21T10:12:15.285Z,99877.13
2022-11-21T10:14:54.721Z,99894.84
2022-11-21T10:17:31.185Z,99888.13
2022-11-21T10:20:13.723Z,99888.19
2022-11-21T10:22:54.794Z,99874.41
2022-11-21T10:25:27.586Z,99873.75
2022-11-21T10:28:01.677Z,99873.91
2022-11-21T10:30:30.894Z,99871.41
2022-11-21T10:33:03.564Z,99870.69
2022-11-21T10:35:38.335Z,99875.22
2022-11-21T10:38:21.670Z,99874.50
2022-11-21T10:40:54.324Z,99863.22
2022-11-21T10:43:50.059Z,99876.53
2022-11-21T10:46:19.189Z,99872.25
2022-11-21T10:48:54.138Z,99866.16
2022-11-21T10:51:38.158Z,99861.09
2022-11-21T10:54:25.537Z,99860.31
2022-11-21T10:56:55.797Z,99863.06
2022-11-21T10:59:30.586Z,99856.81
2022-11-21T11:02:02.656Z,99857.78
2022-11-21T11:04:37.535Z,99853.41
2022-11-21T11:07:23.969Z,99852.66
2022-11-21T11:09:53.393Z,99847.50
2022-11-21T11:12:25.261Z,99843.97
2022-11-21T11:14:54.107Z,99839.69
2022-11-21T11:17:32.611Z,99837.06
2022-11-21T11:20:02.620Z,99835.34
2022-11-21T11:22:31.749Z,99831.03
2022-11-21T11:25:01.201Z,99827.59
2022-11-21T11:27:30.370Z,99823.31
2022-11-21T11:29:58.074Z,99816.34
2022-11-21T11:32:26.319Z,99825.97
2022-11-21T11:35:01.012Z,99829.50
2022-11-21T11:37:40.341Z,99824.97
2022-11-21T11:40:19.118Z,99826.81
2022-11-21T11:43:30.559Z,99825.97
2022-11-21T11:46:30.161Z,99832.84
2022-11-21T11:49:19.919Z,99839.03
2022-11-21T11:51:54.512Z,99835.53
2022-11-21T11:54:27.669Z,99833.03
2022-11-21T11:56:56.184Z,99840.13
2022-11-21T11:59:29.614Z,99833.22
2022-11-21T12:02:05.289Z,99827.97
2022-11-21T12:04:44.230Z,99827.06
2022-11-21T12:10:15.521Z,99815.78
2022-11-21T12:12:46.708Z,99818.63
2022-11-21T12:15:36.654Z,99817.00
2022-11-21T12:18:14.148Z,99808.28
2022-11-21T12:20:51.932Z,99810.84
2022-11-21T12:23:23.909Z,99821.88
2022-11-21T12:26:01.539Z,99814.97
2022-11-21T12:28:42.323Z,99809.50
2022-11-21T12:31:16.337Z,99806.84
2022-11-21T12:33:54.849Z,99808.94
2022-11-21T12:36:31.686Z,99801.22
2022-11-21T12:39:24.597Z,99793.97
2022-11-21T12:42:17.431Z,99795.09
2022-11-21T12:45:00.090Z,99788.22
2022-11-21T12:48:07.113Z,99785.03
2022-11-21T12:51:01.972Z,99785.00
2022-11-21T12:53:58.785Z,99775.94
2022-11-21T12:56:36.721Z,99771.31
2022-11-21T12:59:05.549Z,99774.06
2022-11-21T13:01:46.060Z,99768.13
2022-11-21T13:04:19.166Z,99762.97
2022-11-21T13:06:48.259Z,99752.50
2022-11-21T13:09:20.130Z,99753.41
2022-11-21T13:12:02.114Z,99752.22
2022-11-21T13:14:37.422Z,99754.63
2022-11-21T13:17:24.443Z,99738.72
2022-11-21T13:19:57.362Z,99738.50
2022-11-21T13:22:55.466Z,99739.19
2022-11-21T13:25:47.667Z,99736.38
2022-11-21T13:28:40.196Z,99744.94
2022-11-21T13:31:27.992Z,99745.50
2022-11-21T13:33:56.279Z,99746.22
2022-11-21T13:36:38.950Z,99739.03
2022-11-21T13:39:36.902Z,99736.28
2022-11-21T13:42:27.407Z,99732.69
2022-11-21T13:44:56.582Z,99730.88
2022-11-21T13:48:03.226Z,99742.84
2022-11-21T13:50:57.025Z,99745.25
2022-11-21T13:53:58.236Z,99737.28
2022-11-21T13:56:35.980Z,99737.19
2022-11-21T13:59:18.030Z,99734.41
2022-11-21T14:02:05.976Z,99742.97
2022-11-21T14:05:07.138Z,99736.00
2022-11-21T14:07:37.214Z,99736.00
2022-11-21T14:10:18.582Z,99747.41
2022-11-21T14:12:50.223Z,99747.41
2022-11-21T14:15:28.783Z,99743.78
2022-11-21T14:17:59.402Z,99740.97
2022-11-21T14:20:29.726Z,99735.63
2022-11-21T14:23:01.039Z,99722.38
2022-11-21T14:25:36.209Z,99723.13
2022-11-21T14:28:07.698Z,99712.59
2022-11-21T14:30:38.027Z,99712.53
2022-11-21T14:33:27.597Z,99719.41
2022-11-21T14:35:59.245Z,99715.78
2022-11-21T14:38:28.621Z,99717.44
2022-11-21T14:41:28.990Z,99722.50
2022-11-21T14:44:18.968Z,99721.50
2022-11-21T14:46:47.923Z,99725.78
2022-11-21T14:49:29.304Z,99722.16
2022-11-21T14:52:17.797Z,99724.59
2022-11-21T14:55:22.420Z,99715.81
2022-11-21T14:57:41.928Z,99716.47
2022-11-21T15:00:36.096Z,99720.72
2022-11-21T15:03:03.250Z,99716.25
2022-11-21T15:06:01.434Z,99707.44
2022-11-21T15:08:53.814Z,99710.75
2022-11-21T15:11:12.268Z,99722.00
2022-11-21T15:14:06.735Z,99722.75
2022-11-21T15:16:29.271Z,99714.78
2022-11-21T15:18:57.061Z,99714.66
2022-11-21T15:21:26.226Z,99708.47
2022-11-21T15:23:56.545Z,99713.53
2022-11-21T15:26:31.715Z,99709.94
2022-11-21T15:29:01.550Z,99707.25
2022-11-21T15:31:29.545Z,99703.69
2022-11-21T15:34:33.823Z,99694.00
2022-11-21T15:37:03.703Z,99695.63
2022-11-21T15:39:31.957Z,99697.31
2022-11-21T15:42:33.207Z,99689.41
2022-11-21T15:45:02.451Z,99684.97
2022-11-21T15:47:30.238Z,99680.53
2022-11-21T15:49:57.999Z,99671.75
2022-11-21T15:52:27.117Z,99665.66
2022-11-21T15:54:54.827Z,99662.91
2022-11-21T15:57:23.291Z,99663.75
2022-11-21T15:59:51.187Z,99656.75
2022-11-21T16:02:19.017Z,99652.31
2022-11-21T16:04:46.675Z,99654.00
2022-11-21T16:07:14.432Z,99662.56
2022-11-21T16:09:44.830Z,99648.63
2022-11-21T16:12:12.607Z,99646.81
2022-11-21T16:14:40.354Z,99646.72
2022-11-21T16:17:08.073Z,99643.13
2022-11-21T16:19:35.825Z,99635.22
2022-11-21T16:22:03.542Z,99630.00
2022-11-21T16:24:31.478Z,99628.22
2022-11-21T16:27:02.361Z,99624.75
2022-11-21T16:29:30.517Z,99614.31
2022-11-21T16:31:58.500Z,99616.94
2022-11-21T16:34:27.548Z,99600.41
2022-11-21T16:36:56.008Z,99599.56
2022-11-21T16:39:23.757Z,99604.78
2022-11-21T16:41:51.490Z,99604.78
2022-11-21T16:44:20.572Z,99614.34
2022-11-21T16:46:51.567Z,99611.72
2022-11-21T16:49:20.186Z,99612.56
2022-11-21T16:51:47.970Z,99610.88
2022-11-21T16:54:17.031Z,99614.31
2022-11-21T16:56:44.784Z,99605.63
2022-11-21T16:59:12.507Z,99615.09
2022-11-21T17:01:41.915Z,99612.44
2022-11-21T17:04:15.651Z,99610.63
2022-11-21T17:06:44.945Z,99600.19
2022-11-21T17:09:13.236Z,99600.09
2022-11-21T17:11:41.154Z,99601.78
2022-11-21T17:14:10.852Z,99609.50
2022-11-21T17:16:39.818Z,99609.44
2022-11-21T17:19:12.447Z,99618.06
2022-11-21T17:21:40.213Z,99620.56
2022-11-21T17:24:08.205Z,99618.78
2022-11-21T17:26:37.672Z,99612.63
2022-11-21T17:29:05.919Z,99610.81
2022-11-21T17:31:33.742Z,99596.03
2022-11-21T17:34:02.217Z,99598.53
2022-11-21T17:36:34.320Z,99590.63
2022-11-21T17:39:02.031Z,99588.88
2022-11-21T17:41:29.664Z,99594.84
2022-11-21T17:43:58.319Z,99585.25
2022-11-21T17:46:27.303Z,99584.31
2022-11-21T17:48:58.368Z,99586.88
2022-11-21T17:51:27.947Z,99579.97
2022-11-21T17:53:57.490Z,99577.41
2022-11-21T17:56:27.389Z,99580.88
2022-11-21T17:58:55.413Z,99573.13
2022-11-21T18:01:23.616Z,99567.09
2022-11-21T18:03:56.127Z,99567.16
2022-11-21T18:06:24.248Z,99561.19
2022-11-21T18:08:52.112Z,99554.25
2022-11-21T18:11:22.516Z,99543.94
2022-11-21T18:13:51.084Z,99541.38
2022-11-21T18:16:21.518Z,99538.00
2022-11-21T18:18:49.923Z,99535.50
2022-11-21T18:21:19.636Z,99532.13
2022-11-21T18:23:47.400Z,99519.94
2022-11-21T18:26:16.639Z,99513.94
2022-11-21T18:28:46.851Z,99511.44
2022-11-21T18:31:16.645Z,99498.47
2022-11-21T18:33:45.259Z,99489.88
2022-11-21T18:36:13.352Z,99479.50
2022-11-21T18:38:58.354Z,99473.44
2022-11-21T18:41:34.057Z,99465.63
2022-11-21T18:44:04.654Z,99469.09
2022-11-21T18:46:34.367Z,99463.84
2022-11-21T18:49:06.057Z,99464.72
2022-11-21T18:51:35.567Z,99462.91
2022-11-21T18:54:06.633Z,99455.03
2022-11-21T18:56:35.364Z,99450.59
2022-11-21T18:59:05.779Z,99450.56
2022-11-21T19:01:34.978Z,99448.78
2022-11-21T19:04:02.857Z,99446.06
2022-11-21T19:06:30.723Z,99449.47
2022-11-21T19:08:59.637Z,99438.13
2022-11-21T19:11:29.152Z,99436.31
2022-11-21T19:13:59.188Z,99438.00
2022-11-21T19:16:31.082Z,99436.16
2022-11-21T19:19:33.186Z,99443.06
2022-11-21T19:21:47.236Z,99448.22
2022-11-21T19:24:15.793Z,99447.28
2022-11-21T19:26:44.245Z,99437.66
2022-11-21T19:29:12.087Z,99454.13
2022-11-21T19:31:45.793Z,99450.59
2022-11-21T19:34:14.278Z,99441.00
2022-11-21T19:36:42.990Z,99437.47
2022-11-21T19:39:10.827Z,99428.75
2022-11-21T19:41:38.719Z,99430.41
2022-11-21T19:44:06.689Z,99425.13
2022-11-21T19:46:36.302Z,99425.91
2022-11-21T19:49:06.813Z,99418.94
2022-11-21T19:51:36.896Z,99411.13
2022-11-21T19:54:05.326Z,99409.25
2022-11-21T19:56:33.743Z,99410.13
2022-11-21T19:59:01.591Z,99421.38
2022-11-21T20:01:31.434Z,99415.25
2022-11-21T20:04:01.361Z,99411.69
2022-11-21T20:06:32.698Z,99413.28
2022-11-21T20:09:02.553Z,99411.53
2022-11-21T20:11:31.966Z,99416.66
2022-11-21T20:14:00.238Z,99416.59
2022-11-21T20:16:30.481Z,99424.34
2022-11-21T20:19:01.048Z,99428.63
2022-11-21T20:21:30.926Z,99431.19
2022-11-21T20:23:59.291Z,99432.03
2022-11-21T20:26:27.969Z,99427.66
2022-11-21T20:28:56.513Z,99426.78
2022-11-21T20:31:27.043Z,99425.06
2022-11-21T20:33:56.892Z,99425.06
2022-11-21T20:36:26.283Z,99426.00
2022-11-21T20:38:56.722Z,99446.84
2022-11-21T20:41:26.862Z,99457.28
2022-11-21T20:46:43.640Z,99452.22
2022-11-21T20:49:12.441Z,99441.88
2022-11-21T20:54:29.732Z,99437.72
2022-11-21T20:56:57.627Z,99440.34
2022-11-21T20:59:27.482Z,99444.78
2022-11-21T21:01:55.823Z,99443.97
2022-11-21T21:04:23.604Z,99444.88
2022-11-21T21:06:51.330Z,99460.53
2022-11-21T21:09:19.072Z,99448.44
2022-11-21T21:11:53.095Z,99448.53
2022-11-21T21:14:21.739Z,99445.09
2022-11-21T21:16:49.877Z,99439.06
2022-11-21T21:19:17.795Z,99446.91
2022-11-21T21:21:45.823Z,99441.75
2022-11-21T21:24:13.893Z,99440.94
2022-11-21T21:26:43.894Z,99429.72
2022-11-21T21:29:14.938Z,99418.50
2022-11-21T21:31:49.943Z,99407.25
2022-11-21T21:34:18.194Z,99406.41
2022-11-21T21:36:45.941Z,99406.44
2022-11-21T21:39:13.744Z,99406.53
2022-11-21T21:41:44.590Z,99407.44
2022-11-21T21:44:14.019Z,99411.88
2022-11-21T21:46:41.923Z,99401.56
2022-11-21T21:49:09.738Z,99402.47
2022-11-21T21:51:38.452Z,99397.34
2022-11-21T21:54:06.689Z,99400.00
2022-11-21T21:56:34.688Z,99400.06
2022-11-21T21:59:02.538Z,99394.88
2022-11-21T22:01:33.371Z,99389.78
2022-11-21T22:04:03.570Z,99390.69
2022-11-21T22:06:33.424Z,99388.13
2022-11-21T22:09:01.313Z,99389.00
2022-11-21T22:11:31.206Z,99389.09
2022-11-21T22:14:01.177Z,99387.41
2022-11-21T22:16:29.595Z,99393.53
2022-11-21T22:18:59.084Z,99386.66
2022-11-21T22:21:28.762Z,99376.28
2022-11-21T22:26:46.161Z,99374.66
2022-11-21T22:29:13.931Z,99375.59
2022-11-21T22:31:41.673Z,99382.56
2022-11-21T22:34:13.555Z,99382.63
2022-11-21T22:36:41.612Z,99382.66
2022-11-21T22:39:10.037Z,99383.56
2022-11-21T22:41:37.795Z,99374.06
2022-11-21T22:44:06.522Z,99367.16
2022-11-21T22:46:34.299Z,99361.13
2022-11-21T22:49:02.158Z,99375.00
2022-11-21T22:51:31.259Z,99362.03
2022-11-21T22:53:59.080Z,99365.50
2022-11-21T22:56:27.505Z,99366.38
2022-11-21T22:58:56.019Z,99372.50
2022-11-21T23:01:25.547Z,99368.97
2022-11-21T23:03:55.496Z,99355.09
2022-11-21T23:06:25.028Z,99355.13
2022-11-21T23:08:55.325Z,99344.75
2022-11-21T23:11:26.116Z,99343.03
2022-11-21T23:13:55.371Z,99348.25
2022-11-21T23:16:24.108Z,99343.06
2022-11-21T23:18:53.009Z,99344.78
2022-11-21T23:21:21.093Z,99348.25
2022-11-21T23:23:49.072Z,99346.50
2022-11-21T23:26:18.187Z,99346.50
2022-11-21T23:28:45.894Z,99344.78
2022-11-21T23:31:13.658Z,99338.72
2022-11-21T23:33:41.469Z,99341.31
2022-11-21T23:36:09.199Z,99330.03
2022-11-21T23:38:36.939Z,99326.56
2022-11-21T23:41:04.895Z,99319.63
2022-11-21T23:43:33.998Z,99312.63
2022-11-21T23:46:01.809Z,99309.19
2022-11-21T23:48:29.624Z,99299.59
2022-11-21T23:50:57.524Z,99297.00
2022-11-21T23:53:25.250Z,99295.25
2022-11-21T23:55:52.971Z,99297.88
2022-11-21T23:58:20.697Z,99292.66
